sim
Sign-in with your pilot id or email,
or register
Callsign
Passwort

Schedule Details

Flight Number: DLH480 (2)
Departure: Munich Airport (EDDM) at 10:40
Arrival: Denver International Airport (KDEN) at 21:55
Route: Lufthansa Passenger Schedule. Enter filed route here before submitting Pirep.

Weather Information
Getting current METAR information for EDDM 240650Z 24003KT 210V300 9999 -RA FEW036 BKN080 13/12 Q1010 BECMG 26008KT
Getting current METAR information for KDEN 240653Z 22007KT 10SM SCT220 17/01 A3015 RMK AO2 SLP127 T01670006 403000139

Schedule Frequency

Route Map